Pagrindinis puslapis
METAR-TAF:

METAR-TAF

Oro uostai :

Nikosija, Kipras

platuma: 35-09N, ilguma: 033-30E, Aukštis: 91 m

Dabartinis oras

Ataskaita buvo paskelbta 47 minutes, ne 12:20 UTC
Vėjas 13 kt iš Pietryčių
Temperatūra 29°C
Drėgmė 33%
Slėgis 1010 hPa
Matomumas 10 km arba daugiau
Mažai debesys ne aukštis 2500 ft

METAR: LCEN 011220Z 14013KT 9999 FEW025 29/11 Q1010 NOSIG RMK RWY11 14011KT 110V170

Laikas: 16:07 (13:07 UTC)

Prognozė

Ataskaita buvo paskelbta 2 valandos ir 27 minutes, ne 10:40 UTC
Prognozė galioja nuo 01 metu 12 UTC su 02 metu 12 UTC
Vėjas 15 kt iš Šiaurės/Šiaurės Vakarų
Matomumas 10 km arba daugiau
Mažai debesys ne aukštis 2500 ft

TAF: LCEN 011040Z 0112/0212 33015KT 9999 FEW025

Orai ataskaitas ir orų prognozės (METAR, TAF).

turimą stotys yra geltonos ir raudonos taškus žemėlapyje.

Perkelti pele per norėdami pamatyti stoties vardą.

Tada spustelėkite, norėdami matyti oro stebėjimo ir prognozės.

Norėdami pakeisti žemėlapį: spustelėkite ant žalios mygtukų su juodo kryžiaus žemyn,; žalią mygtuką su brūkšneliu, jei norite nutolinti; arba žalių rodyklių gretimoms žemėlapius.


METAR-TAF: